Time;durP1;ratioP1;P1;durP2;ratioP2;P2;SDS_P1;SDS_P2;PMS_P1;PMS_P2;Temp;Humidity;BMP_temperature;BMP_pressure;BME280_temperature;BME280_humidity;BME280_pressure;Samples;Min_cycle;Max_cycle;Signal;HPM_P1;HPM_P2
2022/12/19 00:01:33;;;;;;;63.10;32.40;;;14.50;73.40;;;17.41;37.74;100799.31;5059864;28;20044;-71
2022/12/19 00:04:01;;;;;;;66.95;33.15;;;14.40;73.20;;;17.41;37.65;100793.81;5042364;28;20755;-71
2022/12/19 00:06:29;;;;;;;67.93;35.17;;;14.40;73.70;;;17.35;37.82;100800.38;5054823;28;20052;-72
2022/12/19 00:08:59;;;;;;;68.95;34.15;;;14.40;73.80;;;17.36;38.30;100799.31;5037639;28;20053;-72
2022/12/19 00:11:26;;;;;;;61.45;32.38;;;14.50;73.80;;;17.35;37.61;100797.63;5018877;28;20048;-71
2022/12/19 00:13:52;;;;;;;63.25;34.65;;;14.40;73.70;;;17.36;37.60;100799.31;5021063;28;20123;-71
2022/12/19 00:16:23;;;;;;;71.55;35.75;;;14.40;73.90;;;17.33;37.84;100799.84;5042098;28;20036;-72
2022/12/19 00:18:53;;;;;;;63.47;33.15;;;14.40;73.50;;;17.41;37.37;100807.53;5034484;28;20082;-71
2022/12/19 00:21:22;;;;;;;63.05;33.15;;;14.30;73.50;;;17.40;37.51;100786.69;5022390;28;20148;-72
2022/12/19 00:23:48;;;;;;;66.75;34.53;;;14.50;73.50;;;17.39;37.44;100792.44;5024481;28;20052;-72
2022/12/19 00:26:18;;;;;;;66.30;33.55;;;14.40;73.80;;;17.32;37.71;100782.53;5041937;28;20482;-71
2022/12/19 00:28:46;;;;;;;62.83;32.60;;;14.50;73.50;;;17.33;37.51;100784.22;5056104;28;20086;-71
2022/12/19 00:31:13;;;;;;;70.95;34.22;;;14.30;73.60;;;17.28;37.53;100791.59;5038955;28;20044;-72
2022/12/19 00:33:39;;;;;;;65.63;34.85;;;14.20;73.60;;;17.30;37.68;100784.75;5043081;28;20099;-72
2022/12/19 00:36:09;;;;;;;60.50;33.47;;;14.30;73.80;;;17.31;37.41;100778.16;5039073;28;20520;-71
2022/12/19 00:38:35;;;;;;;63.63;33.03;;;14.30;73.80;;;17.29;37.51;100771.28;5008747;28;20075;-71
2022/12/19 00:41:17;;;;;;;61.20;32.40;;;14.40;73.50;;;17.28;37.63;100772.41;5040674;28;20051;-71
2022/12/19 00:43:43;;;;;;;62.42;33.38;;;14.40;73.50;;;17.33;37.53;100777.91;5038296;28;20040;-72
2022/12/19 00:46:12;;;;;;;57.45;30.90;;;14.30;73.50;;;17.30;37.35;100779.28;5036649;28;20044;-72
2022/12/19 00:48:38;;;;;;;61.30;33.05;;;14.20;73.50;;;17.28;37.50;100769.66;5026640;28;20392;-72
2022/12/19 00:51:10;;;;;;;61.97;33.75;;;14.20;73.50;;;17.26;37.59;100774.59;5007639;28;20051;-72
2022/12/19 00:53:36;;;;;;;70.97;34.10;;;14.20;73.40;;;17.22;37.54;100767.97;5034103;28;20107;-72
2022/12/19 00:56:09;;;;;;;60.70;31.42;;;14.30;73.70;;;17.24;37.52;100758.38;5023767;28;20049;-72
2022/12/19 00:58:35;;;;;;;60.88;32.40;;;14.20;73.60;;;17.22;37.43;100765.25;5038746;28;20384;-72
2022/12/19 01:01:16;;;;;;;62.67;34.35;;;14.20;73.60;;;17.23;37.34;100755.94;5021229;28;20032;-71
2022/12/19 01:03:42;;;;;;;62.25;32.83;;;14.10;73.70;;;17.31;37.02;100758.97;5022575;28;20048;-71
2022/12/19 01:06:08;;;;;;;55.17;30.60;;;14.20;73.40;;;17.27;37.25;100748.78;5030258;28;20066;-71
2022/12/19 01:08:34;;;;;;;61.35;30.98;;;14.20;73.00;;;17.24;37.64;100754.81;5053706;28;20036;-71
2022/12/19 01:11:01;;;;;;;59.75;31.65;;;14.20;73.10;;;17.25;37.45;100742.75;5034126;28;20059;-72
2022/12/19 01:13:28;;;;;;;63.30;31.45;;;14.30;73.60;;;17.26;37.27;100738.94;5018297;28;20044;-72
2022/12/19 01:15:54;;;;;;;55.83;29.00;;;14.20;73.50;;;17.34;36.88;100747.44;5020049;28;20047;-71
2022/12/19 01:18:21;;;;;;;53.05;30.30;;;14.20;73.40;;;17.32;37.16;100746.06;5052050;28;20486;-71
2022/12/19 01:20:47;;;;;;;56.22;31.45;;;14.20;73.40;;;17.33;36.85;100737.56;5019560;28;20132;-71
2022/12/19 01:23:16;;;;;;;60.83;29.77;;;14.20;73.20;;;17.27;37.12;100732.34;5058299;28;20383;-72
2022/12/19 01:25:42;;;;;;;57.85;31.63;;;14.20;73.10;;;17.30;36.99;100729.91;5060328;28;20054;-72
2022/12/19 01:28:12;;;;;;;54.33;28.95;;;14.20;73.20;;;17.27;37.06;100729.59;5039450;28;20060;-71
2022/12/19 01:30:38;;;;;;;58.88;31.33;;;14.30;73.10;;;17.31;37.23;100736.19;5018259;28;20484;-71
2022/12/19 01:33:05;;;;;;;50.40;28.70;;;14.20;73.30;;;17.34;37.23;100721.94;5052365;28;20123;-72
2022/12/19 01:35:31;;;;;;;50.72;28.50;;;14.10;73.30;;;17.35;37.28;100721.69;5038875;28;20051;-72
2022/12/19 01:37:57;;;;;;;61.53;30.88;;;14.10;73.40;;;17.45;37.06;100720.84;5055684;28;20044;-71
2022/12/19 01:40:23;;;;;;;55.03;31.02;;;14.10;73.70;;;17.49;36.88;100718.41;5068973;28;20040;-71
2022/12/19 01:42:49;;;;;;;53.00;29.63;;;14.10;73.40;;;17.47;36.68;100715.91;5045433;28;20100;-72
2022/12/19 01:45:15;;;;;;;52.85;30.13;;;14.20;73.00;;;17.48;36.98;100716.75;5047603;28;20040;-72
2022/12/19 01:47:47;;;;;;;48.33;29.10;;;14.20;73.60;;;17.50;37.32;100715.38;5070718;28;20401;-72
2022/12/19 01:50:19;;;;;;;51.17;28.63;;;14.10;73.60;;;17.49;36.91;100696.44;5044075;28;20079;-72
2022/12/19 01:52:45;;;;;;;54.70;28.33;;;14.10;73.40;;;17.52;37.00;100696.72;5023757;28;20443;-72
2022/12/19 01:55:12;;;;;;;55.00;31.50;;;14.10;73.40;;;17.47;36.93;100699.44;5022731;28;20514;-72
2022/12/19 01:57:37;;;;;;;57.63;29.77;;;14.10;73.30;;;17.46;36.61;100708.78;5025232;28;20048;-72
2022/12/19 02:00:05;;;;;;;49.70;29.25;;;14.20;73.10;;;17.48;36.73;100695.63;5059849;28;20044;-72
2022/12/19 02:02:34;;;;;;;53.05;28.88;;;14.20;73.20;;;17.54;37.04;100690.97;5038921;28;20040;-71
2022/12/19 02:05:00;;;;;;;50.70;28.30;;;14.20;73.40;;;17.60;36.68;100683.53;5038396;28;20072;-71
2022/12/19 02:07:27;;;;;;;51.13;28.20;;;14.30;73.10;;;17.60;36.65;100678.88;5007689;28;20833;-72
2022/12/19 02:09:54;;;;;;;54.67;28.83;;;14.30;73.10;;;17.58;36.68;100686.59;5024947;28;20051;-71
2022/12/19 02:12:21;;;;;;;55.95;29.85;;;14.30;73.20;;;17.65;36.39;100678.06;5023671;28;20075;-72
2022/12/19 02:14:48;;;;;;;47.08;27.45;;;14.20;72.90;;;17.60;36.46;100676.13;5023385;28;20081;-71
2022/12/19 02:17:46;;;;;;;47.45;28.98;;;14.30;72.50;;;17.63;36.72;100672.00;5040951;28;20456;-72
2022/12/19 02:20:56;;;;;;;50.28;26.83;;;14.30;73.20;;;17.68;36.80;100658.28;5024539;28;20075;-72
2022/12/19 02:24:00;;;;;;;53.42;27.70;;;14.30;73.20;;;17.63;36.66;100650.91;5025038;28;20048;-71
2022/12/19 02:26:50;;;;;;;49.70;27.90;;;14.30;72.80;;;17.69;36.83;100655.28;5073955;28;20051;-71
2022/12/19 02:29:56;;;;;;;49.53;28.02;;;14.30;73.20;;;17.67;36.57;100654.72;5055669;28;20448;-71
2022/12/19 02:32:41;;;;;;;49.00;26.70;;;14.30;73.10;;;17.70;36.50;100645.13;5073638;28;20032;-71
2022/12/19 02:35:51;;;;;;;51.75;25.63;;;14.20;73.10;;;17.76;36.53;100647.59;5057819;28;20052;-72
2022/12/19 02:38:47;;;;;;;45.25;25.83;;;14.40;72.90;;;17.81;36.73;100643.22;4968724;28;20084;-72
2022/12/19 02:41:26;;;;;;;46.78;26.85;;;14.30;72.70;;;17.83;36.27;100633.59;4984476;28;20166;-72
2022/12/19 02:43:54;;;;;;;45.45;26.40;;;14.40;72.60;;;17.81;36.45;100633.09;5026001;28;20064;-71
2022/12/19 02:46:20;;;;;;;47.92;26.42;;;14.40;72.90;;;17.73;36.47;100628.09;5030453;28;20127;-71
2022/12/19 02:48:46;;;;;;;51.72;27.83;;;14.30;72.60;;;17.75;36.68;100621.22;5019014;28;20559;-71
2022/12/19 02:51:12;;;;;;;52.03;28.10;;;14.40;72.60;;;17.80;36.56;100628.69;5035428;28;20058;-72
2022/12/19 02:53:38;;;;;;;47.30;27.85;;;14.30;73.30;;;17.86;36.34;100630.31;5057745;28;20036;-71
2022/12/19 02:56:55;;;;;;;47.67;28.05;;;14.40;72.90;;;17.84;36.15;100627.03;5018942;28;20089;-71
2022/12/19 03:00:03;;;;;;;47.20;26.63;;;14.40;72.70;;;17.85;36.29;100625.91;5016108;28;20048;-71
2022/12/19 03:02:57;;;;;;;43.42;25.80;;;14.50;72.70;;;17.81;36.49;100624.84;5074812;28;20048;-71
2022/12/19 03:05:43;;;;;;;42.80;24.33;;;14.50;72.30;;;17.80;36.35;100625.94;5071987;28;20041;-71
2022/12/19 03:09:07;;;;;;;48.15;27.50;;;14.40;72.60;;;17.87;36.39;100626.47;5056229;28;20672;-71
2022/12/19 03:11:35;;;;;;;45.95;25.55;;;14.40;72.60;;;17.89;36.28;100617.97;4962297;28;20441;-71
2022/12/19 03:14:07;;;;;;;49.60;27.27;;;14.40;72.60;;;17.85;36.60;100617.69;4956342;28;20046;-71
2022/12/19 03:16:35;;;;;;;41.67;23.98;;;14.40;72.60;;;17.88;36.41;100619.88;4989881;28;20049;-71
2022/12/19 03:19:01;;;;;;;44.17;26.42;;;14.50;72.70;;;17.81;36.49;100618.50;5018018;28;20055;-71
2022/12/19 03:21:36;;;;;;;41.05;23.95;;;14.50;72.30;;;17.82;36.48;100625.66;5027475;28;20100;-71
2022/12/19 03:24:02;;;;;;;42.90;24.05;;;14.40;72.60;;;17.85;36.75;100628.66;5001483;28;20044;-71
2022/12/19 03:26:31;;;;;;;41.58;24.02;;;14.40;72.60;;;17.84;36.25;100626.22;5041694;28;20090;-71
2022/12/19 03:29:08;;;;;;;46.50;25.80;;;14.40;72.60;;;17.85;36.20;100625.91;5024170;28;20460;-71
2022/12/19 03:31:34;;;;;;;43.78;25.55;;;14.50;72.70;;;17.89;36.09;100634.44;5024618;28;20048;-71
2022/12/19 03:34:17;;;;;;;51.15;25.13;;;14.40;72.60;;;17.84;36.27;100629.78;5025740;28;20171;-71
2022/12/19 03:36:46;;;;;;;41.90;24.20;;;14.40;72.60;;;17.79;36.22;100624.25;5053069;28;20094;-71
2022/12/19 03:39:12;;;;;;;42.95;23.45;;;14.40;72.60;;;17.82;36.35;100626.47;5041063;28;20465;-71
2022/12/19 03:44:24;;;;;;;40.58;23.98;;;14.40;72.60;;;17.82;36.31;100636.66;5030262;28;20794;-71
2022/12/19 03:47:07;;;;;;;35.08;22.60;;;14.40;72.50;;;17.85;36.13;100639.66;5022468;28;20062;-72
2022/12/19 03:49:33;;;;;;;40.65;23.48;;;14.40;72.50;;;17.90;36.08;100636.88;5037292;28;20049;-71
2022/12/19 03:52:04;;;;;;;36.35;22.02;;;14.40;72.40;;;17.85;35.88;100633.34;5035610;28;20037;-71
2022/12/19 03:54:38;;;;;;;40.83;23.73;;;14.50;71.90;;;17.82;36.00;100634.72;5050517;28;20048;-72
2022/12/19 03:57:20;;;;;;;40.85;24.65;;;14.40;71.50;;;17.79;35.52;100635.25;5029934;28;20099;-71
2022/12/19 04:00:01;;;;;;;39.20;23.60;;;14.40;71.60;;;17.79;35.68;100632.50;5017655;28;20086;-71
2022/12/19 04:02:27;;;;;;;42.17;24.83;;;14.30;71.30;;;17.68;35.74;100639.94;5047463;28;20037;-71
2022/12/19 04:05:17;;;;;;;40.70;23.05;;;14.40;71.40;;;17.74;35.73;100624.28;5053113;28;20074;-71
2022/12/19 04:07:43;;;;;;;39.20;21.98;;;14.40;71.20;;;17.82;35.35;100626.47;5043226;28;20075;-71
2022/12/19 04:10:18;;;;;;;41.55;24.10;;;14.50;71.30;;;17.74;35.25;100625.09;5037239;28;20036;-71
2022/12/19 04:12:51;;;;;;;40.42;24.02;;;14.50;70.80;;;17.72;35.08;100615.50;5022623;28;20051;-72
2022/12/19 04:15:19;;;;;;;37.60;22.40;;;14.40;70.60;;;17.76;35.43;100614.66;5040260;28;20859;-72
2022/12/19 04:17:55;;;;;;;38.53;22.40;;;14.40;70.40;;;17.73;35.38;100611.63;5022941;28;20036;-71
2022/12/19 04:20:23;;;;;;;41.33;23.50;;;14.40;70.30;;;17.69;35.21;100616.88;5029275;28;20410;-71
2022/12/19 04:23:16;;;;;;;36.85;22.02;;;14.40;70.50;;;17.74;35.16;100616.03;5026999;28;20495;-71
2022/12/19 04:25:46;;;;;;;37.50;22.42;;;14.40;70.60;;;17.69;35.48;100618.78;5039989;28;20062;-71
2022/12/19 04:28:21;;;;;;;33.90;20.80;;;14.50;70.40;;;17.72;35.39;100610.00;5026760;28;20052;-71
2022/12/19 04:30:47;;;;;;;41.85;22.63;;;14.40;70.20;;;17.69;35.29;100607.81;5027481;28;20044;-71
2022/12/19 04:33:13;;;;;;;41.80;23.33;;;14.40;70.20;;;17.71;35.21;100605.63;5026723;28;20035;-71
2022/12/19 04:35:39;;;;;;;36.50;21.80;;;14.50;70.00;;;17.71;34.86;100600.94;5071990;28;20036;-71
2022/12/19 04:38:06;;;;;;;38.67;22.30;;;14.50;69.80;;;17.70;34.93;100595.72;5056171;28;20041;-71
2022/12/19 04:40:33;;;;;;;34.88;22.60;;;14.50;70.00;;;17.68;35.34;100585.03;5021322;28;20043;-71
2022/12/19 04:42:59;;;;;;;37.92;21.48;;;14.50;70.10;;;17.65;35.21;100584.75;5039687;28;20097;-71
2022/12/19 04:45:25;;;;;;;39.28;22.65;;;14.40;69.80;;;17.68;34.98;100586.94;5071164;28;20040;-71
2022/12/19 04:47:52;;;;;;;32.40;19.52;;;14.40;69.60;;;17.68;34.66;100585.03;5053566;28;20063;-71
2022/12/19 04:50:18;;;;;;;34.75;21.65;;;14.40;69.50;;;17.64;34.83;100591.34;5054567;28;20040;-71
2022/12/19 04:52:44;;;;;;;35.10;20.55;;;14.40;69.50;;;17.68;35.08;100593.28;5070063;28;20051;-71
2022/12/19 04:55:10;;;;;;;36.40;21.90;;;14.40;69.50;;;17.69;34.82;100599.59;5056884;28;20036;-71
2022/12/19 04:57:36;;;;;;;36.88;21.83;;;14.40;69.50;;;17.66;34.81;100600.97;5053379;28;20585;-71
2022/12/19 05:00:05;;;;;;;36.60;21.08;;;14.40;69.40;;;17.53;34.60;100590.56;5056811;28;20529;-71
2022/12/19 05:02:32;;;;;;;34.08;20.90;;;14.40;69.40;;;17.61;34.68;100586.44;5060177;28;20561;-71
2022/12/19 05:04:58;;;;;;;40.33;21.95;;;14.40;68.90;;;17.59;34.51;100583.94;5055756;28;20044;-71
2022/12/19 05:07:24;;;;;;;29.20;19.48;;;14.40;68.70;;;17.58;34.43;100572.16;5024606;28;20117;-71
2022/12/19 05:09:50;;;;;;;34.55;19.92;;;14.40;68.70;;;17.61;34.77;100580.94;5056425;28;20040;-72
2022/12/19 05:12:16;;;;;;;41.78;22.48;;;14.40;69.20;;;17.60;34.71;100582.03;5070715;28;20029;-72
2022/12/19 05:14:42;;;;;;;41.65;23.65;;;14.40;69.20;;;17.55;35.11;100577.34;5055370;28;20036;-72
2022/12/19 05:17:08;;;;;;;42.33;24.10;;;14.50;69.00;;;17.51;34.66;100576.28;5012243;28;20583;-72
2022/12/19 05:19:35;;;;;;;31.15;20.88;;;14.50;68.90;;;17.49;34.49;100582.03;5056494;28;20066;-71
2022/12/19 05:22:01;;;;;;;39.35;23.30;;;14.50;68.60;;;17.49;34.60;100575.72;5036592;28;20048;-71
2022/12/19 05:24:27;;;;;;;35.80;20.98;;;14.50;68.20;;;17.50;34.50;100561.75;5043929;28;20040;-71
2022/12/19 05:26:53;;;;;;;38.22;22.48;;;14.50;68.10;;;17.55;34.39;100566.38;5069657;28;20109;-71
2022/12/19 05:29:19;;;;;;;39.55;21.27;;;14.40;68.70;;;17.56;34.10;100560.63;5038890;28;20509;-71
2022/12/19 05:31:45;;;;;;;33.45;20.95;;;14.40;68.70;;;17.49;34.60;100562.84;5054257;28;20124;-71
2022/12/19 05:34:11;;;;;;;36.53;21.50;;;14.40;68.20;;;17.48;34.58;100563.94;5050671;28;20044;-72
2022/12/19 05:36:37;;;;;;;37.63;22.50;;;14.30;68.60;;;17.45;34.30;100564.47;5016670;28;20047;-71
2022/12/19 05:39:04;;;;;;;40.78;23.38;;;14.40;68.10;;;17.48;34.21;100571.34;5043773;28;20464;-71
2022/12/19 05:41:30;;;;;;;43.75;23.20;;;14.50;67.80;;;17.46;34.14;100566.13;5039227;28;20055;-71
2022/12/19 05:43:56;;;;;;;32.40;20.38;;;14.40;67.80;;;17.47;34.55;100567.75;5054743;28;20473;-71
2022/12/19 05:46:22;;;;;;;37.17;21.35;;;14.30;68.60;;;17.47;34.31;100564.22;5056143;28;20102;-71
2022/12/19 05:48:49;;;;;;;38.60;22.35;;;14.30;68.60;;;17.40;34.12;100559.00;5058382;28;20060;-71
2022/12/19 05:51:15;;;;;;;37.40;21.00;;;14.30;68.00;;;17.40;34.39;100559.00;5053412;28;20439;-71
2022/12/19 05:53:41;;;;;;;34.15;21.17;;;14.30;67.90;;;17.44;34.08;100554.59;5040145;28;20762;-71
2022/12/19 05:56:13;;;;;;;35.38;22.38;;;14.30;67.80;;;17.45;34.20;100563.66;5038541;28;20040;-71
2022/12/19 05:58:39;;;;;;;39.28;22.20;;;14.30;67.90;;;17.44;34.09;100560.09;5037770;28;20044;-71
2022/12/19 06:01:18;;;;;;;36.17;20.17;;;14.30;68.20;;;17.41;34.24;100555.16;5024244;28;20076;-71
2022/12/19 06:03:44;;;;;;;37.60;23.00;;;14.30;68.10;;;17.39;34.18;100560.09;5039055;28;20036;-71
2022/12/19 06:06:13;;;;;;;41.38;22.38;;;14.30;68.10;;;17.35;34.20;100559.84;5067593;28;20047;-71
2022/12/19 06:08:40;;;;;;;33.78;20.40;;;14.30;68.20;;;17.34;34.78;100546.38;5053204;28;20044;-71
2022/12/19 06:11:07;;;;;;;32.72;19.65;;;14.30;68.50;;;17.45;34.25;100548.00;5026580;28;20115;-71
2022/12/19 06:13:34;;;;;;;33.92;20.63;;;14.30;68.10;;;17.43;34.43;100552.97;5030614;28;20450;-71
2022/12/19 06:16:10;;;;;;;31.92;20.50;;;14.30;67.90;;;17.36;34.68;100552.44;5059180;28;20127;-71
2022/12/19 06:18:36;;;;;;;34.00;19.70;;;14.30;68.10;;;17.36;34.56;100549.69;5060940;28;20048;-71
2022/12/19 06:21:07;;;;;;;30.88;19.88;;;14.30;68.30;;;17.38;34.47;100538.41;5031448;28;20356;-71
2022/12/19 06:23:34;;;;;;;39.75;22.08;;;14.30;68.30;;;17.34;34.43;100541.72;5024493;28;20049;-71
2022/12/19 06:26:02;;;;;;;38.30;22.27;;;14.30;68.70;;;17.35;34.39;100542.53;5052491;28;20040;-71
2022/12/19 06:28:29;;;;;;;32.58;19.48;;;14.40;68.10;;;17.38;34.25;100546.66;5020351;28;20053;-71
2022/12/19 06:30:58;;;;;;;34.67;20.20;;;14.30;67.90;;;17.33;34.36;100544.75;5038966;28;20052;-71
2022/12/19 06:33:25;;;;;;;37.72;21.38;;;14.30;68.10;;;17.31;34.24;100546.94;5040594;28;20181;-71
2022/12/19 06:36:03;;;;;;;32.55;19.58;;;14.30;68.20;;;17.28;34.38;100542.03;5021364;28;20050;-71
2022/12/19 06:38:29;;;;;;;33.58;18.70;;;14.20;68.40;;;17.26;34.88;100545.03;5036201;28;20128;-71
2022/12/19 06:43:40;;;;;;;33.15;20.30;;;14.30;68.60;;;17.29;34.46;100541.72;5066970;28;20153;-71
2022/12/19 06:46:06;;;;;;;31.80;20.83;;;14.30;68.20;;;17.33;34.26;100555.72;5056761;28;20045;-71
2022/12/19 06:48:33;;;;;;;32.30;20.40;;;14.30;68.10;;;17.26;34.78;100557.94;5040037;28;20059;-71
2022/12/19 06:50:59;;;;;;;36.28;19.55;;;14.20;68.40;;;17.25;34.80;100550.78;5011898;28;20044;-71
2022/12/19 06:53:25;;;;;;;34.92;19.75;;;14.20;68.40;;;17.24;34.98;100557.38;5021770;28;20484;-71
2022/12/19 06:55:52;;;;;;;32.67;19.60;;;14.20;68.80;;;17.23;34.88;100559.28;5015250;28;20106;-71
2022/12/19 06:58:18;;;;;;;34.83;20.45;;;14.10;69.10;;;17.27;34.34;100554.88;5034859;28;20229;-71
2022/12/19 07:00:44;;;;;;;30.35;19.35;;;14.20;68.40;;;17.26;34.71;100552.44;5038065;28;20045;-71
2022/12/19 07:03:12;;;;;;;37.25;21.40;;;14.20;68.50;;;17.32;34.41;100541.16;5052902;28;20048;-71
2022/12/19 07:05:39;;;;;;;29.48;18.58;;;14.20;68.40;;;17.32;34.16;100540.34;5036853;28;20088;-71
2022/12/19 07:08:08;;;;;;;33.78;20.02;;;14.00;68.40;;;17.20;34.59;100531.59;5056110;28;20051;-71
2022/12/19 07:10:34;;;;;;;38.92;20.83;;;14.10;68.90;;;17.21;34.89;100538.72;5052420;28;20520;-71
2022/12/19 07:13:00;;;;;;;33.83;20.02;;;14.10;69.00;;;17.23;34.62;100545.59;5055565;28;20657;-71
2022/12/19 07:15:30;;;;;;;32.20;20.88;;;14.00;69.20;;;17.25;34.66;100546.13;5052857;28;20322;-71
2022/12/19 07:17:58;;;;;;;31.52;19.92;;;13.90;69.00;;;17.26;34.67;100546.94;5038499;28;20040;-71
2022/12/19 07:20:24;;;;;;;34.40;18.70;;;13.90;69.50;;;17.28;34.77;100542.03;5064102;28;20132;-71
2022/12/19 07:22:50;;;;;;;34.10;20.20;;;13.90;69.30;;;17.23;34.61;100536.53;5039573;28;20058;-71
2022/12/19 07:25:16;;;;;;;34.53;20.73;;;13.90;69.40;;;17.22;34.63;100537.63;5053933;28;20481;-71
2022/12/19 07:27:43;;;;;;;32.75;19.88;;;14.00;69.00;;;17.31;34.89;100546.94;5041267;28;20071;-71
2022/12/19 07:30:10;;;;;;;28.75;17.70;;;14.00;69.40;;;17.30;34.32;100542.53;5040759;28;20036;-71
2022/12/19 07:32:38;;;;;;;29.58;19.15;;;13.90;69.30;;;17.31;34.92;100555.19;5038474;28;20044;-71
2022/12/19 07:35:07;;;;;;;31.27;18.95;;;13.80;69.80;;;17.32;34.83;100563.13;5067307;28;20097;-71
2022/12/19 07:37:33;;;;;;;30.25;17.55;;;13.90;69.50;;;17.38;34.33;100552.97;5056866;28;20044;-71
2022/12/19 07:40:00;;;;;;;26.85;18.08;;;13.90;69.10;;;17.32;34.70;100548.59;5066491;28;20556;-71
2022/12/19 07:42:26;;;;;;;32.78;19.85;;;13.90;69.30;;;17.34;34.70;100549.13;5041271;28;20411;-71
2022/12/19 07:44:52;;;;;;;29.50;18.95;;;14.00;69.40;;;17.38;34.35;100552.97;5058142;28;20040;-71
2022/12/19 07:47:18;;;;;;;32.63;19.42;;;14.00;69.00;;;17.36;34.46;100541.47;5052068;28;20138;-71
2022/12/19 07:49:44;;;;;;;26.23;17.50;;;13.90;69.30;;;17.43;34.50;100538.41;5020053;28;20518;-71
2022/12/19 07:52:10;;;;;;;30.67;19.08;;;13.80;69.70;;;17.47;34.43;100534.03;5054268;28;20037;-71
2022/12/19 07:54:36;;;;;;;32.80;18.50;;;13.80;69.70;;;17.45;34.41;100528.81;5045498;28;20461;-71
2022/12/19 07:57:02;;;;;;;33.35;20.00;;;13.80;69.60;;;17.46;34.20;100524.97;5069427;28;20532;-71
2022/12/19 07:59:28;;;;;;;36.67;20.70;;;14.00;69.10;;;17.47;34.16;100540.34;5022895;28;20090;-71
2022/12/19 08:01:54;;;;;;;31.70;19.17;;;13.90;69.40;;;17.58;34.43;100539.22;5051501;28;20048;-71
2022/12/19 08:04:20;;;;;;;29.95;19.17;;;13.90;69.70;;;17.57;34.03;100537.56;5054386;28;20043;-71
2022/12/19 08:06:50;;;;;;;28.25;17.50;;;13.90;69.70;;;17.55;34.24;100537.06;5056191;28;20045;-71
2022/12/19 08:09:16;;;;;;;31.27;19.77;;;13.90;69.80;;;17.56;34.09;100529.63;5068463;28;20399;-71
2022/12/19 08:11:42;;;;;;;31.30;19.02;;;13.90;69.40;;;17.54;34.10;100526.34;5052335;28;20045;-71
2022/12/19 08:14:08;;;;;;;31.67;17.90;;;13.80;69.50;;;17.58;34.19;100530.19;5068097;28;20079;-71
2022/12/19 08:16:37;;;;;;;33.75;20.60;;;13.90;69.60;;;17.55;34.45;100523.34;5055780;28;20040;-71
2022/12/19 08:19:03;;;;;;;31.27;19.23;;;13.90;69.70;;;17.61;34.23;100515.09;5048588;28;20150;-71
2022/12/19 08:21:29;;;;;;;31.98;18.23;;;13.90;69.70;;;17.63;34.04;100510.13;5051359;28;20053;-71
2022/12/19 08:23:55;;;;;;;36.78;21.83;;;13.80;69.70;;;17.66;34.13;100504.91;5063643;28;20050;-71
2022/12/19 08:26:25;;;;;;;30.17;18.33;;;13.90;69.60;;;17.65;33.98;100510.66;5014401;28;20040;-71
2022/12/19 08:28:55;;;;;;;36.67;20.58;;;13.90;69.40;;;17.68;34.34;100513.69;5037653;28;20056;-71
2022/12/19 08:31:24;;;;;;;28.92;18.65;;;14.00;69.40;;;17.74;34.19;100509.00;5018116;28;20493;-71
2022/12/19 08:33:54;;;;;;;26.95;18.45;;;14.00;69.70;;;17.77;33.97;100502.94;5034747;28;20037;-71
2022/12/19 08:36:21;;;;;;;37.70;21.30;;;14.00;69.40;;;17.82;33.86;100505.69;5065875;28;20041;-71
2022/12/19 08:38:47;;;;;;;31.15;21.55;;;13.90;69.80;;;17.82;33.83;100494.72;5051432;28;20056;-71
2022/12/19 08:41:15;;;;;;;32.67;21.25;;;13.90;69.30;;;17.76;34.14;100496.63;5021075;28;20408;-71
2022/12/19 08:43:41;;;;;;;33.53;19.85;;;13.90;69.50;;;17.71;33.75;100493.09;5063262;28;20071;-71
2022/12/19 08:46:08;;;;;;;32.13;19.33;;;14.00;69.20;;;17.78;34.20;100482.63;5068848;28;20040;-71
2022/12/19 08:48:34;;;;;;;33.65;18.92;;;14.00;69.60;;;17.86;34.12;100476.59;4992133;28;20106;-71
2022/12/19 08:51:10;;;;;;;34.55;20.98;;;14.00;69.70;;;17.85;34.10;100485.09;5033646;28;20706;-71
2022/12/19 08:53:38;;;;;;;32.65;21.23;;;14.10;69.40;;;17.76;33.84;100476.63;5037715;28;20056;-71
2022/12/19 08:56:17;;;;;;;32.45;19.55;;;14.10;69.30;;;17.86;33.65;100473.84;5036956;28;20043;-71
2022/12/19 08:58:44;;;;;;;32.72;20.42;;;14.00;69.00;;;17.81;33.57;100484.84;5068209;28;20124;-71
2022/12/19 09:01:13;;;;;;;34.95;20.23;;;14.10;69.00;;;17.88;33.97;100501.81;5065741;28;20048;-71
2022/12/19 09:03:39;;;;;;;35.90;20.10;;;14.10;69.00;;;17.90;33.60;100501.56;5024044;28;20130;-71
2022/12/19 09:06:08;;;;;;;34.20;20.52;;;14.10;69.30;;;17.96;33.59;100490.28;5018965;28;20444;-71
2022/12/19 09:08:34;;;;;;;35.35;21.23;;;14.20;69.30;;;17.86;33.96;100482.09;5017259;28;20052;-71
2022/12/19 09:11:12;;;;;;;34.55;21.35;;;14.10;69.00;;;17.91;33.53;100487.56;5018344;28;20414;-71
2022/12/19 09:13:39;;;;;;;30.83;20.38;;;14.10;69.20;;;17.91;33.58;100492.19;5048042;28;20040;-71
2022/12/19 09:16:10;;;;;;;35.08;22.52;;;14.10;69.10;;;17.94;33.36;100486.19;5037426;28;20040;-71
2022/12/19 09:18:36;;;;;;;35.40;21.00;;;14.10;68.80;;;17.91;33.82;100487.56;5036930;28;20490;-71
2022/12/19 09:21:03;;;;;;;36.00;19.38;;;14.20;69.10;;;17.94;33.49;100481.50;5021204;28;20040;-71
2022/12/19 09:23:30;;;;;;;35.05;21.20;;;14.20;69.00;;;17.99;33.76;100484.22;5015182;28;20484;-71
2022/12/19 09:26:05;;;;;;;34.45;20.30;;;14.20;69.00;;;17.97;33.59;100475.44;5018720;28;20040;-71
2022/12/19 09:28:31;;;;;;;32.78;20.90;;;14.20;68.90;;;18.05;33.57;100475.97;5052362;28;20089;-71
2022/12/19 09:30:59;;;;;;;35.38;20.95;;;14.20;69.00;;;17.99;33.31;100466.94;5033733;28;20482;-71
2022/12/19 09:33:25;;;;;;;32.13;20.30;;;14.20;68.60;;;17.95;33.38;100443.88;5038269;28;20124;-71
2022/12/19 09:35:52;;;;;;;34.78;21.08;;;14.20;68.70;;;17.96;33.91;100435.38;5033821;28;20403;-71
2022/12/19 09:38:19;;;;;;;31.63;19.67;;;14.20;68.80;;;17.99;33.52;100453.22;5048395;28;20127;-71
2022/12/19 09:40:55;;;;;;;38.10;20.95;;;14.30;68.90;;;18.00;33.38;100446.59;5015320;28;20086;-71
2022/12/19 09:43:46;;;;;;;35.15;22.40;;;14.30;68.60;;;18.06;33.34;100433.66;5048317;28;20089;-71
2022/12/19 09:46:17;;;;;;;;;;;14.30;68.60;;;18.05;33.00;100435.59;5065644;28;20396;-71
2022/12/19 09:48:45;;;;;;;33.95;20.67;;;14.30;68.60;;;18.02;33.49;100427.91;5053670;28;20273;-71
2022/12/19 09:51:25;;;;;;;33.75;22.15;;;14.30;68.40;;;18.02;33.45;100427.09;5019094;28;20045;-71
2022/12/19 09:54:17;;;;;;;32.80;21.55;;;14.40;68.20;;;18.02;33.65;100433.41;5049132;28;20467;-71
2022/12/19 09:56:43;;;;;;;32.80;20.92;;;14.50;68.10;;;18.09;33.25;100438.56;5035949;28;20462;-71
2022/12/19 09:59:28;;;;;;;34.45;22.42;;;14.40;68.00;;;18.06;33.13;100452.88;5005601;28;20066;-71
2022/12/19 10:02:11;;;;;;;34.58;22.52;;;14.40;68.10;;;18.04;33.23;100441.34;5018170;28;20051;-71
2022/12/19 10:04:37;;;;;;;39.95;23.70;;;14.40;68.10;;;18.05;33.47;100426.53;5036586;28;20079;-71
2022/12/19 10:07:04;;;;;;;37.08;22.88;;;14.40;68.10;;;18.10;33.32;100412.78;5017105;28;20049;-71
2022/12/19 10:09:33;;;;;;;34.05;20.63;;;14.40;68.00;;;18.14;32.94;100408.34;5017308;28;20518;-71
2022/12/19 10:12:09;;;;;;;31.73;21.25;;;14.50;68.00;;;18.14;32.97;100406.44;5024602;28;20109;-71
2022/12/19 10:15:26;;;;;;;42.25;23.70;;;14.60;67.50;;;18.16;33.26;100395.97;5067479;28;20098;-71
2022/12/19 10:18:15;;;;;;;35.42;21.98;;;14.60;67.40;;;18.13;32.79;100395.72;5032263;28;20041;-71
2022/12/19 10:20:45;;;;;;;33.22;21.60;;;14.60;67.40;;;18.14;32.82;100387.22;5052010;28;20078;-71